OOCL Atlanta — VRAR6 — position and weather

sailwx.info

Track history (hours):
 
Tides and Currents Weather Stations Pressure Air Temp Water Temp Dewpoint Dewpoint Depression Visibility Wind Speed Wind Dir Waves Ship Positions

OOCL Atlanta

Last reported at 2015-Jul-30 07:31 UTC. Time now 2015-Jul-31 01:05 UTC.
Position N 47°34' W 131°49'.

Length 323 m; beam 42.8 m; draft 14.5 m.

Type: Cargo ship. MMSI: 477920300.

Date/timePositionNaut miles runAvg speedWind from/ knotsBaromVisibWave heightAir tempDewpointWater temp
2015-Jul-30 07:31N 47°34' W 131°49'3819.1
2015-Jul-30 05:32N 47°16' W 131°00'16713.8
2015-Jul-29 17:29N 47°38' W 126°56'1515.4
2015-Jul-29 16:30N 47°47' W 126°37'1415.0
2015-Jul-29 15:33N 47°55' W 126°21'1514.7
2015-Jul-29 14:34N 48°04' W 126°03'1514.9
2015-Jul-29 13:33N 48°13' W 125°45'1515.0
2015-Jul-29 12:34N 48°23' W 125°28'1514.5
2015-Jul-29 11:34N 48°31' W 125°09'1615.8
2015-Jul-29 10:33N 48°31' W 124°46'1615.8
2015-Jul-29 09:33N 48°26' W 124°23'1514.9
2015-Jul-29 08:33N 48°20' W 124°03'1514.7
2015-Jul-29 07:34N 48°17' W 123°41'1313.5
2015-Jul-29 06:34N 48°11' W 123°23'1010.4
2015-Jul-29 05:33N 48°13' W 123°07'1717.5
2015-Jul-29 04:34N 48°09' W 122°42'1818.1
2015-Jul-29 03:34N 47°53' W 122°28'1616.3
2015-Jul-29 02:33N 47°37' W 122°24'3 2.6
2015-Jul-29 01:33N 47°35' W 122°21'0 0.0
2015-Jul-29 00:33N 47°35' W 122°21'0 0.0
2015-Jul-28 23:33N 47°35' W 122°21'0 0.0
2015-Jul-28 22:33N 47°35' W 122°21'0 0.0
2015-Jul-28 21:33N 47°35' W 122°21'0 0.0
2015-Jul-28 20:33N 47°35' W 122°21'0 0.0
2015-Jul-28 19:33N 47°35' W 122°21'0 0.0
2015-Jul-28 18:33N 47°35' W 122°21'0 0.0
2015-Jul-28 17:33N 47°35' W 122°21'0 0.0
2015-Jul-28 16:33N 47°35' W 122°21'0 0.0
2015-Jul-28 15:33N 47°35' W 122°21'0 0.0
2015-Jul-28 14:33N 47°35' W 122°21'0 0.0
2015-Jul-28 13:33N 47°35' W 122°21'0 0.0
2015-Jul-28 12:30N 47°35' W 122°21'0 0.0
2015-Jul-28 11:33N 47°35' W 122°21'0 0.0
2015-Jul-28 10:30N 47°35' W 122°21'0 0.0
2015-Jul-28 09:33N 47°35' W 122°21'0 0.0
2015-Jul-28 08:33N 47°35' W 122°21'0 0.0
2015-Jul-28 07:33N 47°35' W 122°21'0 0.0
2015-Jul-28 06:30N 47°35' W 122°21'0 0.0
2015-Jul-28 05:27N 47°35' W 122°21'2 1.9
2015-Jul-28 04:33N 47°36' W 122°23'1110.9
2015-Jul-28 03:34N 47°25' W 122°23'9 8.6
2015-Jul-28 02:33N 47°17' W 122°25'1 0.6
2015-Jul-28 00:25N 47°16' W 122°24'0 0.0
2015-Jul-27 23:31N 47°16' W 122°24'0 0.0
2015-Jul-27 22:31N 47°16' W 122°24'0 0.0
2015-Jul-27 21:31N 47°16' W 122°24'0 0.0
2015-Jul-27 20:31N 47°16' W 122°24'0 0.0
2015-Jul-27 19:22N 47°16' W 122°24'0 0.0
2015-Jul-27 18:25N 47°16' W 122°24'0 0.0
2015-Jul-27 17:31N 47°16' W 122°24'0 0.0
2015-Jul-27 16:31N 47°16' W 122°24'0 0.0
2015-Jul-27 15:25N 47°16' W 122°24'0 0.0
2015-Jul-27 14:31N 47°16' W 122°24'0 0.0
2015-Jul-27 13:31N 47°16' W 122°24'0 0.0
2015-Jul-27 12:31N 47°16' W 122°24'0 0.0
2015-Jul-27 11:31N 47°16' W 122°24'0 0.0
2015-Jul-27 10:31N 47°16' W 122°24'0 0.0
2015-Jul-27 09:31N 47°16' W 122°24'0 0.0
2015-Jul-27 08:31N 47°16' W 122°24'0 0.0
2015-Jul-27 07:31N 47°16' W 122°24'0 0.0
2015-Jul-27 06:22N 47°16' W 122°24'0 0.0
2015-Jul-27 05:31N 47°16' W 122°24'0 0.0
2015-Jul-27 04:31N 47°16' W 122°24'0 0.0
2015-Jul-27 03:22N 47°16' W 122°24'0 0.0
2015-Jul-27 02:22N 47°16' W 122°24'0 0.0
2015-Jul-27 01:31N 47°16' W 122°24'0 0.0
2015-Jul-27 00:25N 47°16' W 122°24'0 0.0
2015-Jul-26 23:22N 47°16' W 122°24'0 0.0
2015-Jul-26 22:31N 47°16' W 122°24'0 0.0
2015-Jul-26 21:25N 47°16' W 122°24'0 0.0
2015-Jul-26 20:31N 47°16' W 122°24'0 0.0
2015-Jul-26 19:25N 47°16' W 122°24'0 0.0
2015-Jul-26 18:16N 47°16' W 122°24'0 0.0
2015-Jul-26 16:31N 47°16' W 122°24'0 0.0
2015-Jul-26 15:25N 47°16' W 122°24'0 0.0
2015-Jul-26 12:31N 47°16' W 122°24'0 0.0
2015-Jul-26 11:31N 47°16' W 122°24'0 0.0
2015-Jul-26 10:31N 47°16' W 122°24'0 0.0
2015-Jul-26 09:31N 47°16' W 122°24'0 0.0
2015-Jul-26 08:19N 47°16' W 122°24'0 0.0
2015-Jul-26 07:25N 47°16' W 122°24'0 0.0
2015-Jul-26 06:25N 47°16' W 122°24'0 0.0
2015-Jul-26 05:31N 47°16' W 122°24'0 0.0
2015-Jul-26 03:19N 47°16' W 122°24'0 0.0
2015-Jul-26 02:31N 47°16' W 122°24'2 1.6
2015-Jul-26 01:33N 47°17' W 122°25'8 7.7
2015-Jul-26 00:33N 47°24' W 122°22'1616.0
2015-Jul-25 23:33N 47°40' W 122°28'1716.7
2015-Jul-25 22:33N 47°56' W 122°32'1716.0
2015-Jul-25 21:29N 48°11' W 122°46'1616.8
2015-Jul-25 20:33N 48°12' W 123°09'1313.4
2015-Jul-25 19:34N 48°13' W 123°29'1212.0
2015-Jul-25 18:33N 48°23' W 123°19'1414.0
2015-Jul-25 17:34N 48°36' W 123°14'1514.9
2015-Jul-25 16:34N 48°48' W 123°00'1413.5
2015-Jul-25 15:33N 49°00' W 123°10'1 1.1
2015-Jul-25 14:26N 49°01' W 123°09'0 0.0
2015-Jul-25 13:32N 49°01' W 123°09'0 0.0
2015-Jul-25 12:32N 49°01' W 123°09'0 0.0
2015-Jul-25 11:32N 49°01' W 123°09'0 0.0
2015-Jul-25 10:32N 49°01' W 123°09'0 0.0
2015-Jul-25 09:32N 49°01' W 123°09'0 0.0
2015-Jul-25 08:32N 49°01' W 123°09'0 0.0
2015-Jul-25 07:32N 49°01' W 123°09'0 0.0
2015-Jul-25 06:32N 49°01' W 123°09'0 0.0
2015-Jul-25 05:32N 49°01' W 123°09'0 0.0
2015-Jul-25 04:32N 49°01' W 123°09'0 0.0
2015-Jul-25 03:32N 49°01' W 123°09'0 0.0
2015-Jul-25 02:32N 49°01' W 123°09'0 0.0
2015-Jul-25 01:32N 49°01' W 123°09'0 0.0
2015-Jul-25 00:32N 49°01' W 123°09'0 0.0
2015-Jul-24 23:32N 49°01' W 123°09'0 0.0
2015-Jul-24 22:32N 49°01' W 123°09'0 0.0
2015-Jul-24 21:32N 49°01' W 123°09'0 0.0
2015-Jul-24 20:32N 49°01' W 123°09'0 0.0
2015-Jul-24 19:32N 49°01' W 123°09'0 0.0
2015-Jul-24 18:32N 49°01' W 123°09'0 0.0
2015-Jul-24 17:32N 49°01' W 123°09'0 0.0
2015-Jul-24 16:32N 49°01' W 123°09'0 0.0
2015-Jul-24 15:32N 49°01' W 123°09'0 0.0
2015-Jul-24 14:32N 49°01' W 123°09'0 0.0
2015-Jul-24 13:32N 49°01' W 123°09'0 0.0
2015-Jul-24 12:29N 49°01' W 123°09'0 0.0
2015-Jul-24 11:32N 49°01' W 123°09'0 0.0
2015-Jul-24 10:32N 49°01' W 123°09'0 0.0
2015-Jul-24 09:32N 49°01' W 123°09'0 0.0
2015-Jul-24 08:32N 49°01' W 123°09'0 0.0
2015-Jul-24 07:32N 49°01' W 123°09'0 0.0
2015-Jul-24 06:32N 49°01' W 123°09'0 0.0
2015-Jul-24 05:32N 49°01' W 123°09'0 0.0
2015-Jul-24 04:32N 49°01' W 123°09'0 0.0
2015-Jul-24 03:32N 49°01' W 123°09'0 0.0
2015-Jul-24 02:32N 49°01' W 123°09'0 0.0
2015-Jul-24 01:32N 49°01' W 123°09'0 0.0
2015-Jul-24 00:32N 49°01' W 123°09'0 0.0
2015-Jul-23 23:32N 49°01' W 123°09'0 0.0
2015-Jul-23 22:32N 49°01' W 123°09'0 0.0
2015-Jul-23 21:32N 49°01' W 123°09'0 0.0
2015-Jul-23 20:32N 49°01' W 123°09'0 0.0
2015-Jul-23 19:32N 49°01' W 123°09'0 0.0
2015-Jul-23 18:32N 49°01' W 123°09'0 0.0
2015-Jul-23 17:32N 49°01' W 123°09'0 0.0
2015-Jul-23 16:32N 49°01' W 123°09'0 0.0
2015-Jul-23 15:26N 49°01' W 123°09'0 0.0
2015-Jul-23 14:29N 49°01' W 123°09'0 0.0
2015-Jul-23 13:32N 49°01' W 123°09'0 0.0
2015-Jul-23 12:32N 49°01' W 123°09'0 0.0
2015-Jul-23 11:32N 49°01' W 123°09'0 0.0
2015-Jul-23 10:32N 49°01' W 123°09'0 0.0
2015-Jul-23 09:32N 49°01' W 123°09'0 0.0
2015-Jul-23 08:32N 49°01' W 123°09'0 0.0
2015-Jul-23 07:32N 49°01' W 123°09'0 0.0
2015-Jul-23 06:32N 49°01' W 123°09'0 0.0
2015-Jul-23 05:32N 49°01' W 123°09'0 0.0
2015-Jul-23 04:32N 49°01' W 123°09'0 0.0
2015-Jul-23 03:32N 49°01' W 123°09'0 0.0
2015-Jul-23 02:32N 49°01' W 123°09'0 0.0
2015-Jul-23 01:32N 49°01' W 123°09'0 0.0
2015-Jul-23 00:32N 49°01' W 123°09'0 0.0
2015-Jul-22 23:32N 49°01' W 123°09'0 0.0
2015-Jul-22 22:32N 49°01' W 123°09'0 0.0
2015-Jul-22 21:32N 49°01' W 123°09'0 0.0
2015-Jul-22 20:32N 49°01' W 123°09'0 0.0
2015-Jul-22 19:32N 49°01' W 123°09'0 0.0
2015-Jul-22 18:32N 49°01' W 123°09'0 0.0
2015-Jul-22 17:32N 49°01' W 123°09'0 0.0
2015-Jul-22 16:32N 49°01' W 123°09'0 0.0
2015-Jul-22 15:32N 49°01' W 123°09'0 0.0
2015-Jul-22 14:32N 49°01' W 123°09'0 0.0
2015-Jul-22 13:32N 49°01' W 123°09'0 0.0
2015-Jul-22 12:32N 49°01' W 123°09'0 0.0
2015-Jul-22 11:32N 49°01' W 123°09'0 0.0
2015-Jul-22 10:32N 49°01' W 123°09'0 0.0
2015-Jul-22 09:32N 49°01' W 123°09'0 0.0
2015-Jul-22 08:32N 49°01' W 123°09'0 0.0
2015-Jul-22 07:32N 49°01' W 123°09'0 0.0
2015-Jul-22 06:32N 49°01' W 123°09'0 0.0
2015-Jul-22 05:32N 49°01' W 123°09'0 0.0
2015-Jul-22 04:32N 49°01' W 123°09'0 0.0
2015-Jul-22 03:32N 49°01' W 123°09'0 0.0
2015-Jul-22 02:32N 49°01' W 123°09'0 0.0
2015-Jul-22 01:32N 49°01' W 123°09'0 0.0
2015-Jul-22 00:32N 49°01' W 123°09'0 0.0
2015-Jul-21 23:32N 49°01' W 123°09'0 0.0
2015-Jul-21 22:32N 49°01' W 123°09'2 2.5
2015-Jul-21 21:33N 48°59' W 123°10'10 9.7
2015-Jul-21 20:33N 48°51' W 123°02'1413.8
2015-Jul-21 19:33N 48°40' W 123°15'1615.9
2015-Jul-21 18:33N 48°24' W 123°12'1110.6
2015-Jul-21 17:33N 48°18' W 123°25'9 9.4
2015-Jul-21 16:33N 48°13' W 123°37'1312.6
2015-Jul-21 15:33N 48°14' W 123°57'1413.2
2015-Jul-21 14:27N 48°20' W 124°16'3913.3
2015-Jul-21 11:31N 48°26' W 125°14'1414.1
2015-Jul-21 10:34N 48°19' W 125°31'1414.5
2015-Jul-21 09:34N 48°10' W 125°48'1414.1
2015-Jul-21 08:32N 48°02' W 126°06'1513.8
2015-Jul-21 07:27N 47°53' W 126°24'  
Track history (hours):
 
Tides and Currents Weather Stations Pressure Air Temp Water Temp Dewpoint Dewpoint Depression Visibility Wind Speed Wind Dir Waves Ship Positions

OOCL Atlanta

Last reported at 2015-Jul-30 07:31 UTC. Time now 2015-Jul-31 01:05 UTC.
Position N 47°34' W 131°49'.

Length 323 m; beam 42.8 m; draft 14.5 m.

Type: Cargo ship. MMSI: 477920300.

Date/timePositionNaut miles runAvg speedWind from/ knotsBaromVisibWave heightAir tempDewpointWater temp
2015-Jul-30 07:31N 47°34' W 131°49'3819.1
2015-Jul-30 05:32N 47°16' W 131°00'16713.8
2015-Jul-29 17:29N 47°38' W 126°56'1515.4
2015-Jul-29 16:30N 47°47' W 126°37'1415.0
2015-Jul-29 15:33N 47°55' W 126°21'1514.7
2015-Jul-29 14:34N 48°04' W 126°03'1514.9
2015-Jul-29 13:33N 48°13' W 125°45'1515.0
2015-Jul-29 12:34N 48°23' W 125°28'1514.5
2015-Jul-29 11:34N 48°31' W 125°09'1615.8
2015-Jul-29 10:33N 48°31' W 124°46'1615.8
2015-Jul-29 09:33N 48°26' W 124°23'1514.9
2015-Jul-29 08:33N 48°20' W 124°03'1514.7
2015-Jul-29 07:34N 48°17' W 123°41'1313.5
2015-Jul-29 06:34N 48°11' W 123°23'1010.4
2015-Jul-29 05:33N 48°13' W 123°07'1717.5
2015-Jul-29 04:34N 48°09' W 122°42'1818.1
2015-Jul-29 03:34N 47°53' W 122°28'1616.3
2015-Jul-29 02:33N 47°37' W 122°24'3 2.6
2015-Jul-29 01:33N 47°35' W 122°21'0 0.0
2015-Jul-29 00:33N 47°35' W 122°21'0 0.0
2015-Jul-28 23:33N 47°35' W 122°21'0 0.0
2015-Jul-28 22:33N 47°35' W 122°21'0 0.0
2015-Jul-28 21:33N 47°35' W 122°21'0 0.0
2015-Jul-28 20:33N 47°35' W 122°21'0 0.0
2015-Jul-28 19:33N 47°35' W 122°21'0 0.0
2015-Jul-28 18:33N 47°35' W 122°21'0 0.0
2015-Jul-28 17:33N 47°35' W 122°21'0 0.0
2015-Jul-28 16:33N 47°35' W 122°21'0 0.0
2015-Jul-28 15:33N 47°35' W 122°21'0 0.0
2015-Jul-28 14:33N 47°35' W 122°21'0 0.0
2015-Jul-28 13:33N 47°35' W 122°21'0 0.0
2015-Jul-28 12:30N 47°35' W 122°21'0 0.0
2015-Jul-28 11:33N 47°35' W 122°21'0 0.0
2015-Jul-28 10:30N 47°35' W 122°21'0 0.0
2015-Jul-28 09:33N 47°35' W 122°21'0 0.0
2015-Jul-28 08:33N 47°35' W 122°21'0 0.0
2015-Jul-28 07:33N 47°35' W 122°21'0 0.0
2015-Jul-28 06:30N 47°35' W 122°21'0 0.0
2015-Jul-28 05:27N 47°35' W 122°21'2 1.9
2015-Jul-28 04:33N 47°36' W 122°23'1110.9
2015-Jul-28 03:34N 47°25' W 122°23'9 8.6
2015-Jul-28 02:33N 47°17' W 122°25'1 0.6
2015-Jul-28 00:25N 47°16' W 122°24'0 0.0
2015-Jul-27 23:31N 47°16' W 122°24'0 0.0
2015-Jul-27 22:31N 47°16' W 122°24'0 0.0
2015-Jul-27 21:31N 47°16' W 122°24'0 0.0
2015-Jul-27 20:31N 47°16' W 122°24'0 0.0
2015-Jul-27 19:22N 47°16' W 122°24'0 0.0
2015-Jul-27 18:25N 47°16' W 122°24'0 0.0
2015-Jul-27 17:31N 47°16' W 122°24'0 0.0
2015-Jul-27 16:31N 47°16' W 122°24'0 0.0
2015-Jul-27 15:25N 47°16' W 122°24'0 0.0
2015-Jul-27 14:31N 47°16' W 122°24'0 0.0
2015-Jul-27 13:31N 47°16' W 122°24'0 0.0
2015-Jul-27 12:31N 47°16' W 122°24'0 0.0
2015-Jul-27 11:31N 47°16' W 122°24'0 0.0
2015-Jul-27 10:31N 47°16' W 122°24'0 0.0
2015-Jul-27 09:31N 47°16' W 122°24'0 0.0
2015-Jul-27 08:31N 47°16' W 122°24'0 0.0
2015-Jul-27 07:31N 47°16' W 122°24'0 0.0
2015-Jul-27 06:22N 47°16' W 122°24'0 0.0
2015-Jul-27 05:31N 47°16' W 122°24'0 0.0
2015-Jul-27 04:31N 47°16' W 122°24'0 0.0
2015-Jul-27 03:22N 47°16' W 122°24'0 0.0
2015-Jul-27 02:22N 47°16' W 122°24'0 0.0
2015-Jul-27 01:31N 47°16' W 122°24'0 0.0
2015-Jul-27 00:25N 47°16' W 122°24'0 0.0
2015-Jul-26 23:22N 47°16' W 122°24'0 0.0
2015-Jul-26 22:31N 47°16' W 122°24'0 0.0
2015-Jul-26 21:25N 47°16' W 122°24'0 0.0
2015-Jul-26 20:31N 47°16' W 122°24'0 0.0
2015-Jul-26 19:25N 47°16' W 122°24'0 0.0
2015-Jul-26 18:16N 47°16' W 122°24'0 0.0
2015-Jul-26 16:31N 47°16' W 122°24'0 0.0
2015-Jul-26 15:25N 47°16' W 122°24'0 0.0
2015-Jul-26 12:31N 47°16' W 122°24'0 0.0
2015-Jul-26 11:31N 47°16' W 122°24'0 0.0
2015-Jul-26 10:31N 47°16' W 122°24'0 0.0
2015-Jul-26 09:31N 47°16' W 122°24'0 0.0
2015-Jul-26 08:19N 47°16' W 122°24'0 0.0
2015-Jul-26 07:25N 47°16' W 122°24'0 0.0
2015-Jul-26 06:25N 47°16' W 122°24'0 0.0
2015-Jul-26 05:31N 47°16' W 122°24'0 0.0
2015-Jul-26 03:19N 47°16' W 122°24'0 0.0
2015-Jul-26 02:31N 47°16' W 122°24'2 1.6
2015-Jul-26 01:33N 47°17' W 122°25'8 7.7
2015-Jul-26 00:33N 47°24' W 122°22'1616.0
2015-Jul-25 23:33N 47°40' W 122°28'1716.7
2015-Jul-25 22:33N 47°56' W 122°32'1716.0
2015-Jul-25 21:29N 48°11' W 122°46'1616.8
2015-Jul-25 20:33N 48°12' W 123°09'1313.4
2015-Jul-25 19:34N 48°13' W 123°29'1212.0
2015-Jul-25 18:33N 48°23' W 123°19'1414.0
2015-Jul-25 17:34N 48°36' W 123°14'1514.9
2015-Jul-25 16:34N 48°48' W 123°00'1413.5
2015-Jul-25 15:33N 49°00' W 123°10'1 1.1
2015-Jul-25 14:26N 49°01' W 123°09'0 0.0
2015-Jul-25 13:32N 49°01' W 123°09'0 0.0
2015-Jul-25 12:32N 49°01' W 123°09'0 0.0
2015-Jul-25 11:32N 49°01' W 123°09'0 0.0
2015-Jul-25 10:32N 49°01' W 123°09'0 0.0
2015-Jul-25 09:32N 49°01' W 123°09'0 0.0
2015-Jul-25 08:32N 49°01' W 123°09'0 0.0
2015-Jul-25 07:32N 49°01' W 123°09'0 0.0
2015-Jul-25 06:32N 49°01' W 123°09'0 0.0
2015-Jul-25 05:32N 49°01' W 123°09'0 0.0
2015-Jul-25 04:32N 49°01' W 123°09'0 0.0
2015-Jul-25 03:32N 49°01' W 123°09'0 0.0
2015-Jul-25 02:32N 49°01' W 123°09'0 0.0
2015-Jul-25 01:32N 49°01' W 123°09'0 0.0
2015-Jul-25 00:32N 49°01' W 123°09'0 0.0
2015-Jul-24 23:32N 49°01' W 123°09'0 0.0
2015-Jul-24 22:32N 49°01' W 123°09'0 0.0
2015-Jul-24 21:32N 49°01' W 123°09'0 0.0
2015-Jul-24 20:32N 49°01' W 123°09'0 0.0
2015-Jul-24 19:32N 49°01' W 123°09'0 0.0
2015-Jul-24 18:32N 49°01' W 123°09'0 0.0
2015-Jul-24 17:32N 49°01' W 123°09'0 0.0
2015-Jul-24 16:32N 49°01' W 123°09'0 0.0
2015-Jul-24 15:32N 49°01' W 123°09'0 0.0
2015-Jul-24 14:32N 49°01' W 123°09'0 0.0
2015-Jul-24 13:32N 49°01' W 123°09'0 0.0
2015-Jul-24 12:29N 49°01' W 123°09'0 0.0
2015-Jul-24 11:32N 49°01' W 123°09'0 0.0
2015-Jul-24 10:32N 49°01' W 123°09'0 0.0
2015-Jul-24 09:32N 49°01' W 123°09'0 0.0
2015-Jul-24 08:32N 49°01' W 123°09'0 0.0
2015-Jul-24 07:32N 49°01' W 123°09'0 0.0
2015-Jul-24 06:32N 49°01' W 123°09'0 0.0
2015-Jul-24 05:32N 49°01' W 123°09'0 0.0
2015-Jul-24 04:32N 49°01' W 123°09'0 0.0
2015-Jul-24 03:32N 49°01' W 123°09'0 0.0
2015-Jul-24 02:32N 49°01' W 123°09'0 0.0
2015-Jul-24 01:32N 49°01' W 123°09'0 0.0
2015-Jul-24 00:32N 49°01' W 123°09'0 0.0
2015-Jul-23 23:32N 49°01' W 123°09'0 0.0
2015-Jul-23 22:32N 49°01' W 123°09'0 0.0
2015-Jul-23 21:32N 49°01' W 123°09'0 0.0
2015-Jul-23 20:32N 49°01' W 123°09'0 0.0
2015-Jul-23 19:32N 49°01' W 123°09'0 0.0
2015-Jul-23 18:32N 49°01' W 123°09'0 0.0
2015-Jul-23 17:32N 49°01' W 123°09'0 0.0
2015-Jul-23 16:32N 49°01' W 123°09'0 0.0
2015-Jul-23 15:26N 49°01' W 123°09'0 0.0
2015-Jul-23 14:29N 49°01' W 123°09'0 0.0
2015-Jul-23 13:32N 49°01' W 123°09'0 0.0
2015-Jul-23 12:32N 49°01' W 123°09'0 0.0
2015-Jul-23 11:32N 49°01' W 123°09'0 0.0
2015-Jul-23 10:32N 49°01' W 123°09'0 0.0
2015-Jul-23 09:32N 49°01' W 123°09'0 0.0
2015-Jul-23 08:32N 49°01' W 123°09'0 0.0
2015-Jul-23 07:32N 49°01' W 123°09'0 0.0
2015-Jul-23 06:32N 49°01' W 123°09'0 0.0
2015-Jul-23 05:32N 49°01' W 123°09'0 0.0
2015-Jul-23 04:32N 49°01' W 123°09'0 0.0
2015-Jul-23 03:32N 49°01' W 123°09'0 0.0
2015-Jul-23 02:32N 49°01' W 123°09'0 0.0
2015-Jul-23 01:32N 49°01' W 123°09'0 0.0
2015-Jul-23 00:32N 49°01' W 123°09'0 0.0
2015-Jul-22 23:32N 49°01' W 123°09'0 0.0
2015-Jul-22 22:32N 49°01' W 123°09'0 0.0
2015-Jul-22 21:32N 49°01' W 123°09'0 0.0
2015-Jul-22 20:32N 49°01' W 123°09'0 0.0
2015-Jul-22 19:32N 49°01' W 123°09'0 0.0
2015-Jul-22 18:32N 49°01' W 123°09'0 0.0
2015-Jul-22 17:32N 49°01' W 123°09'0 0.0
2015-Jul-22 16:32N 49°01' W 123°09'0 0.0
2015-Jul-22 15:32N 49°01' W 123°09'0 0.0
2015-Jul-22 14:32N 49°01' W 123°09'0 0.0
2015-Jul-22 13:32N 49°01' W 123°09'0 0.0
2015-Jul-22 12:32N 49°01' W 123°09'0 0.0
2015-Jul-22 11:32N 49°01' W 123°09'0 0.0
2015-Jul-22 10:32N 49°01' W 123°09'0 0.0
2015-Jul-22 09:32N 49°01' W 123°09'0 0.0
2015-Jul-22 08:32N 49°01' W 123°09'0 0.0
2015-Jul-22 07:32N 49°01' W 123°09'0 0.0
2015-Jul-22 06:32N 49°01' W 123°09'0 0.0
2015-Jul-22 05:32N 49°01' W 123°09'0 0.0
2015-Jul-22 04:32N 49°01' W 123°09'0 0.0
2015-Jul-22 03:32N 49°01' W 123°09'0 0.0
2015-Jul-22 02:32N 49°01' W 123°09'0 0.0
2015-Jul-22 01:32N 49°01' W 123°09'0 0.0
2015-Jul-22 00:32N 49°01' W 123°09'0 0.0
2015-Jul-21 23:32N 49°01' W 123°09'0 0.0
2015-Jul-21 22:32N 49°01' W 123°09'2 2.5
2015-Jul-21 21:33N 48°59' W 123°10'10 9.7
2015-Jul-21 20:33N 48°51' W 123°02'1413.8
2015-Jul-21 19:33N 48°40' W 123°15'1615.9
2015-Jul-21 18:33N 48°24' W 123°12'1110.6
2015-Jul-21 17:33N 48°18' W 123°25'9 9.4
2015-Jul-21 16:33N 48°13' W 123°37'1312.6
2015-Jul-21 15:33N 48°14' W 123°57'1413.2
2015-Jul-21 14:27N 48°20' W 124°16'3913.3
2015-Jul-21 11:31N 48°26' W 125°14'1414.1
2015-Jul-21 10:34N 48°19' W 125°31'1414.5
2015-Jul-21 09:34N 48°10' W 125°48'1414.1
2015-Jul-21 08:32N 48°02' W 126°06'1513.8
2015-Jul-21 07:27N 47°53' W 126°24'  

Dump ship's entire track history